Time;durP1;ratioP1;P1;durP2;ratioP2;P2;SDS_P1;SDS_P2;PMS_P1;PMS_P2;Temp;Humidity;BMP_temperature;BMP_pressure;BME280_temperature;BME280_humidity;BME280_pressure;Samples;Min_cycle;Max_cycle;Signal;HPM_P1;HPM_P2
2022/05/24 09:00:24;;;;;;;1.45;0.70;;;;;;;15.62;61.51;95824.56;2082737;28;20560;-62
2022/05/24 09:01:32;;;;;;;0.90;0.60;;;;;;;15.90;61.47;95826.88;2080997;28;20263;-62
2022/05/24 09:02:36;;;;;;;2.88;0.60;;;;;;;16.33;60.19;95832.16;2074409;28;20297;-62
2022/05/24 09:03:38;;;;;;;2.17;0.82;;;;;;;16.42;60.89;95840.28;2070785;28;20224;-62
2022/05/24 09:04:40;;;;;;;1.45;0.70;;;;;;;15.96;60.42;95827.22;2072551;28;20211;-62
2022/05/24 09:05:51;;;;;;;1.25;0.68;;;;;;;16.23;59.29;95827.75;2074573;28;20209;-61
2022/05/24 09:06:59;;;;;;;1.30;0.80;;;;;;;16.53;59.26;95832.34;2070750;28;20226;-62
2022/05/24 09:08:18;;;;;;;1.15;0.63;;;;;;;16.28;59.97;95831.69;2073309;28;20197;-62
2022/05/24 09:09:29;;;;;;;1.48;0.70;;;;;;;16.54;59.01;95838.44;2072465;28;20622;-62
2022/05/24 09:10:48;;;;;;;1.00;0.70;;;;;;;16.03;58.28;95839.88;2068524;28;20187;-62
2022/05/24 09:12:00;;;;;;;0.95;0.73;;;;;;;15.77;58.43;95840.94;2071479;28;20728;-62
2022/05/24 09:13:13;;;;;;;1.65;0.60;;;;;;;16.16;57.85;95845.84;2061728;28;20207;-62
2022/05/24 09:14:44;;;;;;;6.97;0.70;;;;;;;16.72;57.03;95850.13;2062146;28;20211;-63
2022/05/24 09:15:59;;;;;;;0.90;0.52;;;;;;;16.19;57.12;95842.13;2074466;28;20462;-62
2022/05/24 09:17:36;;;;;;;1.50;0.60;;;;;;;16.16;58.08;95851.09;2073194;28;20702;-63
2022/05/24 09:19:04;;;;;;;12.30;4.72;;;;;;;16.29;57.94;95857.06;2070938;28;20305;-62
2022/05/24 09:20:25;;;;;;;22.50;11.38;;;;;;;15.95;57.01;95851.84;2076311;28;20788;-63
2022/05/24 09:21:31;;;;;;;1.02;0.60;;;;;;;15.65;57.42;95855.88;2073973;28;20226;-62
2022/05/24 09:22:35;;;;;;;1.40;0.60;;;;;;;15.40;58.22;95850.84;2074365;28;20535;-64
2022/05/24 09:23:42;;;;;;;2.58;0.60;;;;;;;15.36;58.51;95866.03;2073118;28;20212;-64
2022/05/24 09:24:56;;;;;;;1.42;0.60;;;;;;;15.63;58.15;95870.97;2071263;28;20234;-64
2022/05/24 09:26:01;;;;;;;1.30;0.60;;;;;;;15.94;57.16;95865.16;2072274;28;20202;-64
2022/05/24 09:27:13;;;;;;;1.60;0.80;;;;;;;16.03;58.99;95867.03;2073675;28;20218;-64
2022/05/24 09:28:15;;;;;;;1.27;0.70;;;;;;;16.10;58.65;95867.38;2078636;28;20566;-64
2022/05/24 09:29:17;;;;;;;2.75;0.70;;;;;;;16.57;55.33;95862.75;2084662;28;20197;-63
2022/05/24 09:30:31;;;;;;;1.30;0.60;;;;;;;16.40;55.61;95874.63;2072555;28;20765;-63
2022/05/24 09:31:38;;;;;;;2.53;0.65;;;;;;;16.09;54.69;95866.56;2073740;28;20733;-63
2022/05/24 09:32:44;;;;;;;2.03;0.70;;;;;;;15.87;55.72;95859.53;2074390;28;20194;-64
2022/05/24 09:33:45;;;;;;;2.55;0.70;;;;;;;15.78;56.93;95870.72;2075758;28;20229;-65
2022/05/24 09:35:02;;;;;;;1.63;0.60;;;;;;;16.05;54.92;95880.94;2077260;28;20198;-64
2022/05/24 09:36:04;;;;;;;1.00;0.60;;;;;;;15.87;55.01;95872.69;2075791;28;20198;-64
2022/05/24 09:44:56;;;;;;;1.05;0.70;;;;;;;16.14;55.67;95885.47;2084804;28;20558;-62
2022/05/24 09:46:20;;;;;;;0.90;0.60;;;;;;;16.73;55.38;95888.69;2082211;28;20204;-62
2022/05/24 09:47:23;;;;;;;1.85;0.80;;;;;;;16.80;53.92;95884.59;2066024;28;20195;-62
2022/05/24 09:48:31;;;;;;;1.85;0.60;;;;;;;16.68;54.02;95890.84;2067007;28;20646;-61
2022/05/24 09:49:35;;;;;;;0.93;0.70;;;;;;;16.89;54.66;95887.44;2066414;28;20246;-61
2022/05/24 09:50:39;;;;;;;1.02;0.60;;;;;;;16.86;52.50;95882.41;2064660;28;20218;-62
2022/05/24 09:51:42;;;;;;;1.27;0.68;;;;;;;16.77;52.54;95887.50;2065917;28;20720;-62
2022/05/24 09:53:09;;;;;;;1.20;0.60;;;;;;;17.04;52.41;95891.50;2067434;28;20554;-62
2022/05/24 09:54:21;;;;;;;1.67;0.70;;;;;;;16.78;52.19;95893.59;2064953;28;20588;-62
2022/05/24 09:55:23;;;;;;;1.10;0.70;;;;;;;16.96;53.61;95888.63;2065595;28;20195;-62
2022/05/24 09:56:33;;;;;;;0.90;0.60;;;;;;;16.42;53.02;95887.72;2066231;28;20199;-62
2022/05/24 09:57:34;;;;;;;1.60;0.85;;;;;;;16.23;54.58;95891.81;2065937;28;20203;-62
2022/05/24 09:58:37;;;;;;;3.67;0.80;;;;;;;16.20;55.11;95897.34;2066934;28;20199;-62
2022/05/24 09:59:41;;;;;;;2.92;0.73;;;;;;;16.68;54.63;95897.94;2068144;28;20201;-62
2022/05/24 10:00:57;;;;;;;0.90;0.60;;;;;;;16.54;53.80;95899.06;2062547;28;20203;-62
2022/05/24 10:01:59;;;;;;;1.45;0.63;;;;;;;16.59;53.47;95902.16;2062135;28;20717;-62
2022/05/24 10:03:06;;;;;;;0.90;0.60;;;;;;;16.67;52.97;95905.03;2065147;28;20234;-61
2022/05/24 10:04:11;;;;;;;1.00;0.63;;;;;;;16.69;52.92;95904.88;2065740;28;20425;-62
2022/05/24 10:05:21;;;;;;;1.38;0.60;;;;;;;16.46;50.75;95889.97;2063565;28;20535;-61
2022/05/24 10:06:30;;;;;;;2.05;0.80;;;;;;;16.98;51.81;95897.25;2063376;28;20210;-61
2022/05/24 10:07:35;;;;;;;1.80;0.57;;;;;;;16.87;52.21;95903.38;2064570;28;20210;-61
2022/05/24 10:08:40;;;;;;;1.75;0.70;;;;;;;16.61;52.18;95898.44;2065965;28;20198;-61
2022/05/24 10:09:43;;;;;;;1.33;0.82;;;;;;;16.27;52.40;95902.94;2066857;28;20203;-61
2022/05/24 10:10:52;;;;;;;1.40;0.60;;;;;;;16.21;53.25;95901.63;2065937;28;20202;-62
2022/05/24 10:11:58;;;;;;;2.95;0.90;;;;;;;16.14;53.77;95906.53;2061924;28;20231;-62
2022/05/24 10:13:02;;;;;;;1.40;0.60;;;;;;;16.23;54.07;95904.16;2062551;28;20562;-61
2022/05/24 10:14:20;;;;;;;1.00;0.60;;;;;;;15.95;54.03;95903.69;2064654;28;20225;-62
2022/05/24 10:38:40;;;;;;;1.30;1.00;;;;;;;17.61;50.71;95904.34;2086387;28;20563;-62
2022/05/24 10:39:41;;;;;;;1.30;0.70;;;;;;;17.58;50.53;95904.63;2078119;28;20201;-60
2022/05/24 10:41:00;;;;;;;1.90;0.80;;;;;;;18.06;51.59;95903.22;2078232;28;20190;-60
2022/05/24 10:42:19;;;;;;;12.13;1.15;;;;;;;17.84;51.19;95901.56;2077522;28;20248;-59
2022/05/24 10:43:44;;;;;;;2.97;0.70;;;;;;;18.40;50.13;95913.50;2077282;28;20596;-62
2022/05/24 10:44:50;;;;;;;1.20;0.80;;;;;;;18.10;49.42;95917.84;2078204;28;20672;-61
2022/05/24 10:46:01;;;;;;;1.58;0.60;;;;;;;18.03;49.94;95912.25;2078379;28;20251;-60
2022/05/24 10:47:06;;;;;;;0.80;0.60;;;;;;;17.98;50.48;95905.69;2077677;28;20221;-60
2022/05/24 10:48:10;;;;;;;3.72;0.88;;;;;;;17.74;51.25;95912.91;2078506;28;20834;-59
2022/05/24 10:49:19;;;;;;;1.58;0.70;;;;;;;17.63;51.29;95912.97;2078020;28;20208;-60
2022/05/24 10:50:59;;;;;;;2.08;0.75;;;;;;;17.81;51.44;95917.66;2078387;28;20205;-62
2022/05/24 10:52:23;;;;;;;5.38;0.90;;;;;;;17.93;51.81;95903.41;2073026;28;20221;-62
2022/05/24 10:53:35;;;;;;;1.60;0.70;;;;;;;17.98;52.02;95905.69;2078122;28;20197;-63
2022/05/24 10:55:01;;;;;;;1.23;0.60;;;;;;;18.32;51.93;95908.03;2077991;28;20213;-63
2022/05/24 10:56:21;;;;;;;1.00;0.60;;;;;;;18.33;51.55;95905.25;2078604;28;20205;-64
2022/05/24 10:57:46;;;;;;;1.00;0.80;;;;;;;18.22;51.91;95915.91;2078273;28;20711;-64
2022/05/24 10:58:50;;;;;;;3.30;0.65;;;;;;;18.22;51.88;95910.63;2078568;28;20577;-64
2022/05/24 11:00:04;;;;;;;1.27;0.60;;;;;;;18.08;51.39;95915.31;2078713;28;20289;-64
2022/05/24 11:01:27;;;;;;;3.92;0.73;;;;;;;17.74;51.03;95907.63;2076762;28;20199;-64
2022/05/24 11:02:50;;;;;;;1.13;0.60;;;;;;;17.78;51.07;95900.28;2076630;28;20704;-64
2022/05/24 11:03:59;;;;;;;1.80;0.70;;;;;;;17.74;52.06;95901.53;2078636;28;20198;-63
2022/05/24 11:09:18;;;;;;;0.93;0.68;;;;;;;17.72;51.53;95906.91;2100312;27;20913;-62
2022/05/24 11:10:33;;;;;;;3.05;0.80;;;;;;;17.91;50.77;95906.16;2094908;28;20547;-61
2022/05/24 11:11:43;;;;;;;1.80;0.65;;;;;;;17.80;49.74;95903.63;2088505;28;20223;-61
2022/05/24 11:12:48;;;;;;;1.63;0.70;;;;;;;17.51;51.70;95899.03;2082295;28;20198;-61
2022/05/24 11:14:08;;;;;;;0.88;0.65;;;;;;;17.44;52.23;95905.78;2078311;28;20211;-61
2022/05/24 11:15:17;;;;;;;38.13;20.52;;;;;;;17.33;51.92;95904.06;2080218;28;20664;-62
2022/05/24 11:16:29;;;;;;;10.60;4.70;;;;;;;17.52;51.11;95906.00;2082836;28;20202;-61
2022/05/24 11:17:31;;;;;;;24.90;14.68;;;;;;;18.47;51.30;95905.84;2079587;28;20206;-61
2022/05/24 11:27:05;;;;;;;1.83;0.57;;;;;;;16.91;52.00;95909.28;2084031;27;20568;-62
2022/05/24 11:28:25;;;;;;;1.00;0.68;;;;;;;17.14;51.49;95904.72;2081819;28;20201;-61
2022/05/24 11:29:33;;;;;;;2.05;0.80;;;;;;;17.59;50.50;95895.75;2085303;28;20203;-61
2022/05/24 11:30:38;;;;;;;1.35;0.70;;;;;;;17.55;50.90;95896.97;2085036;28;20239;-62
2022/05/24 11:31:44;;;;;;;3.30;0.70;;;;;;;17.69;50.49;95899.25;2078776;28;20232;-61
2022/05/24 11:32:54;;;;;;;1.52;0.88;;;;;;;18.06;50.35;95903.22;2079562;28;20685;-61
2022/05/24 11:33:57;;;;;;;1.58;0.77;;;;;;;17.73;48.09;95894.56;2080896;28;20696;-61
2022/05/24 11:35:18;;;;;;;0.90;0.70;;;;;;;17.98;48.32;95898.59;2081886;28;20193;-61
2022/05/24 11:36:45;;;;;;;0.80;0.60;;;;;;;18.71;47.38;95895.72;2078177;28;20201;-61
2022/05/24 11:37:52;;;;;;;1.50;0.70;;;;;;;18.40;47.63;95890.53;2083028;28;20659;-61
2022/05/24 11:38:55;;;;;;;1.85;0.73;;;;;;;18.31;48.21;95896.63;2081684;28;20194;-61
2022/05/24 11:40:30;;;;;;;5.20;0.80;;;;;;;18.16;48.92;95887.41;2078392;28;20558;-61
2022/05/24 11:41:32;;;;;;;1.60;0.70;;;;;;;18.05;49.70;95883.88;2082053;28;20224;-61
2022/05/24 11:42:36;;;;;;;3.40;0.65;;;;;;;18.57;48.87;95886.38;2079165;28;20653;-62
2022/05/24 11:43:44;;;;;;;1.80;0.63;;;;;;;18.67;48.06;95889.06;2081618;28;20194;-62
2022/05/24 11:44:45;;;;;;;1.40;0.90;;;;;;;18.56;47.14;95879.44;2082291;28;20254;-61
2022/05/24 11:45:54;;;;;;;1.25;0.65;;;;;;;18.56;46.65;95881.25;2083750;28;20197;-61
2022/05/24 11:46:56;;;;;;;2.45;0.98;;;;;;;18.82;46.70;95891.31;2079436;28;20226;-62
2022/05/24 11:47:57;;;;;;;3.15;0.70;;;;;;;18.26;48.03;95890.94;2082114;28;20276;-61
2022/05/24 11:49:10;;;;;;;1.85;0.70;;;;;;;18.75;44.85;95875.13;2080837;28;20553;-61
2022/05/24 11:50:30;;;;;;;1.20;0.60;;;;;;;19.50;45.37;95877.22;2081179;28;20222;-61
2022/05/24 11:51:42;;;;;;;2.72;0.77;;;;;;;19.75;42.47;95887.16;2082993;28;20221;-62
2022/05/24 11:53:20;;;;;;;2.05;0.60;;;;;;;19.15;42.67;95886.63;2085175;28;20665;-62
2022/05/24 11:54:21;;;;;;;6.57;0.80;;;;;;;19.18;42.36;95884.50;2079420;28;20641;-62
2022/05/24 11:55:50;;;;;;;1.95;0.70;;;;;;;19.53;42.04;95876.94;2080174;28;20289;-62
2022/05/24 11:57:14;;;;;;;3.38;0.90;;;;;;;19.50;41.34;95879.84;2077538;28;20680;-62
2022/05/24 11:58:18;;;;;;;0.80;0.60;;;;;;;18.83;42.62;95885.03;2080870;28;20586;-62
2022/05/24 11:59:38;;;;;;;2.70;1.10;;;;;;;19.01;42.45;95874.63;2081354;28;20203;-62
2022/05/24 12:00:57;;;;;;;1.45;0.75;;;;;;;18.93;41.87;95849.72;2081133;28;20206;-62
2022/05/24 12:01:58;;;;;;;1.98;0.70;;;;;;;19.07;42.40;95879.34;2081493;28;20222;-62
2022/05/24 12:09:18;;;;;;;2.75;0.70;;;;;;;19.77;41.56;95873.81;2063355;28;20210;-62
2022/05/24 12:10:22;;;;;;;6.38;1.17;;;;;;;20.09;42.49;95877.03;2066123;28;20244;-62
2022/05/24 12:11:36;;;;;;;3.55;0.80;;;;;;;20.78;41.65;95882.84;2066188;28;20198;-62
2022/05/24 12:13:03;;;;;;;0.82;0.60;;;;;;;21.15;40.20;95882.69;2065446;28;20204;-61
2022/05/24 12:14:16;;;;;;;1.40;0.80;;;;;;;21.41;39.38;95873.91;2065624;28;20207;-62
2022/05/24 12:15:19;;;;;;;1.95;1.10;;;;;;;21.22;39.63;95882.91;2062356;28;20776;-62
2022/05/24 12:16:42;;;;;;;1.27;0.73;;;;;;;20.35;41.00;95883.34;2063669;28;20631;-61
2022/05/24 12:17:47;;;;;;;1.83;0.60;;;;;;;20.38;39.99;95888.34;2062893;28;20199;-61
2022/05/24 12:18:59;;;;;;;2.95;0.77;;;;;;;20.00;40.57;95876.97;2062828;28;20199;-61
2022/05/24 12:20:04;;;;;;;3.05;0.70;;;;;;;19.34;40.75;95878.63;2065120;28;20204;-62
2022/05/24 12:21:05;;;;;;;1.25;0.63;;;;;;;19.24;41.52;95880.47;2064876;28;20633;-62
2022/05/24 12:22:41;;;;;;;1.45;0.60;;;;;;;19.05;42.40;95889.25;2065897;28;20227;-62
2022/05/24 12:23:42;;;;;;;2.17;0.70;;;;;;;19.04;44.64;95890.22;2064029;28;20239;-62
2022/05/24 12:24:51;;;;;;;1.60;0.60;;;;;;;19.14;45.94;95898.16;2064624;28;20242;-63
2022/05/24 12:26:15;;;;;;;2.22;0.70;;;;;;;18.99;46.08;95887.16;2065050;28;20199;-62
2022/05/24 12:27:38;;;;;;;4.10;0.65;;;;;;;19.07;46.73;95893.44;2065347;28;20229;-63
2022/05/24 12:28:53;;;;;;;12.48;0.80;;;;;;;19.67;44.49;95896.84;2067187;28;20198;-63
2022/05/24 12:30:00;;;;;;;2.97;1.00;;;;;;;19.84;44.64;95896.09;2063363;28;20210;-63
2022/05/24 12:31:17;;;;;;;4.03;0.68;;;;;;;19.80;44.36;95899.16;2063935;28;20203;-63
2022/05/24 12:32:21;;;;;;;1.48;0.80;;;;;;;19.65;44.96;95894.31;2065266;28;20226;-63
2022/05/24 12:33:31;;;;;;;3.45;0.70;;;;;;;19.39;45.02;95897.56;2064780;28;20704;-63
2022/05/24 12:34:33;;;;;;;1.00;0.80;;;;;;;18.95;46.15;95899.00;2064993;28;20210;-63
2022/05/24 12:35:35;;;;;;;3.13;0.70;;;;;;;18.65;46.34;95896.31;2064191;28;20206;-63
2022/05/24 12:36:39;;;;;;;8.13;0.80;;;;;;;19.08;46.67;95899.53;2063550;28;20229;-64
2022/05/24 12:38:01;;;;;;;1.08;0.50;;;;;;;19.14;46.37;95901.63;2059179;28;20211;-62
2022/05/24 12:39:17;;;;;;;1.45;0.70;;;;;;;19.18;46.53;95902.19;2056738;28;20207;-64
2022/05/24 12:40:37;;;;;;;12.13;2.78;;;;;;;19.39;46.12;95894.09;2062953;28;20210;-63
2022/05/24 12:41:40;;;;;;;10.90;5.57;;;;;;;19.41;46.52;95900.94;2073809;28;20590;-62
2022/05/24 12:43:07;;;;;;;2.08;1.63;;;;;;;19.46;46.17;95894.38;2075484;28;20198;-63
2022/05/24 12:44:14;;;;;;;2.33;0.70;;;;;;;19.71;45.35;95901.69;2077106;28;20216;-62
2022/05/24 12:45:32;;;;;;;1.00;0.70;;;;;;;19.45;45.76;95897.97;2077065;28;20198;-62
2022/05/24 12:46:35;;;;;;;2.63;0.90;;;;;;;19.30;46.12;95895.78;2076777;28;20429;-63
2022/05/24 12:47:36;;;;;;;4.45;0.60;;;;;;;19.02;45.96;95900.09;2074934;28;20206;-63
2022/05/24 12:48:39;;;;;;;0.90;0.60;;;;;;;18.91;45.13;95898.44;2067324;28;20772;-63
2022/05/24 12:49:46;;;;;;;1.42;0.60;;;;;;;19.33;45.27;95905.25;2068297;28;20209;-62
2022/05/24 12:50:48;;;;;;;1.17;0.70;;;;;;;19.73;43.88;95891.78;2075413;28;20205;-63
2022/05/24 12:52:11;;;;;;;1.25;0.65;;;;;;;20.23;41.93;95893.31;2072798;28;20633;-63
2022/05/24 12:53:21;;;;;;;1.70;0.68;;;;;;;20.39;41.53;95900.63;2073517;28;20194;-63
2022/05/24 12:54:33;;;;;;;2.88;0.60;;;;;;;20.28;41.42;95905.28;2075050;28;20198;-63
2022/05/24 12:55:55;;;;;;;1.85;0.80;;;;;;;20.77;41.17;95897.91;2075593;28;20200;-62
2022/05/24 12:57:01;;;;;;;2.25;0.70;;;;;;;20.86;40.87;95907.63;2077024;28;20217;-63
2022/05/24 12:58:02;;;;;;;1.65;0.60;;;;;;;20.98;41.20;95894.97;2078430;28;20202;-63
2022/05/24 12:59:12;;;;;;;6.50;0.80;;;;;;;20.55;40.88;95902.63;2078532;28;20205;-63
2022/05/24 13:00:25;;;;;;;3.55;0.77;;;;;;;20.22;40.23;95899.56;2074132;28;20759;-63
2022/05/24 13:01:33;;;;;;;1.00;0.73;;;;;;;20.50;41.05;95909.34;2074032;28;20332;-63
2022/05/24 13:02:39;;;;;;;2.80;0.90;;;;;;;20.38;41.30;95903.44;2065894;28;20242;-63
2022/05/24 13:03:59;;;;;;;3.58;0.70;;;;;;;20.70;41.20;95902.13;2067587;28;20207;-62
2022/05/24 13:05:21;;;;;;;2.85;0.60;;;;;;;21.31;41.76;95905.88;2074917;28;20217;-63
2022/05/24 13:06:26;;;;;;;0.80;0.60;;;;;;;22.06;40.98;95901.09;2073394;28;20232;-63
2022/05/24 13:07:56;;;;;;;2.13;0.80;;;;;;;22.40;39.31;95895.78;2073821;28;20244;-63
2022/05/24 13:09:22;;;;;;;1.98;0.90;;;;;;;21.71;41.70;95902.88;2068259;28;20206;-63
2022/05/24 13:10:34;;;;;;;3.35;0.70;;;;;;;21.66;41.19;95901.53;2070643;28;20198;-62
2022/05/24 13:11:36;;;;;;;1.70;0.73;;;;;;;20.97;41.85;95892.47;2078547;28;20230;-62
2022/05/24 13:12:38;;;;;;;1.42;0.88;;;;;;;20.74;42.15;95889.44;2077409;28;20196;-60
2022/05/24 13:13:41;;;;;;;1.70;0.82;;;;;;;21.03;41.83;95899.81;2075971;28;20688;-61
2022/05/24 13:14:53;;;;;;;4.97;0.70;;;;;;;21.26;41.85;95902.03;2079417;28;20676;-60
2022/05/24 13:15:58;;;;;;;1.85;0.70;;;;;;;22.00;41.52;95898.09;2074096;28;20200;-61
2022/05/24 13:17:00;;;;;;;4.47;1.45;;;;;;;22.55;40.19;95904.00;2075413;28;20225;-60
2022/05/24 13:18:08;;;;;;;1.10;0.60;;;;;;;22.00;39.29;95902.53;2074751;28;20648;-60
2022/05/24 13:19:10;;;;;;;3.22;0.68;;;;;;;21.09;41.45;95895.72;2073993;28;20212;-60
2022/05/24 13:20:17;;;;;;;3.17;0.70;;;;;;;21.15;41.98;95890.66;2074240;28;20205;-60
2022/05/24 13:21:23;;;;;;;2.38;0.80;;;;;;;20.86;42.57;95890.84;2076798;28;20824;-60
2022/05/24 13:22:41;;;;;;;0.90;0.70;;;;;;;20.52;43.56;95897.63;2076462;28;20259;-60
2022/05/24 13:23:43;;;;;;;3.10;0.80;;;;;;;20.68;43.27;95898.78;2075831;28;20205;-60
2022/05/24 13:24:57;;;;;;;1.15;0.70;;;;;;;20.65;43.12;95902.56;2075539;28;20205;-60
2022/05/24 13:26:01;;;;;;;1.73;0.80;;;;;;;20.37;43.48;95904.41;2074516;28;20214;-62
2022/05/24 13:27:05;;;;;;;1.95;0.60;;;;;;;20.32;44.19;95907.50;2067212;28;20251;-61
2022/05/24 13:28:07;;;;;;;6.18;0.70;;;;;;;20.16;44.61;95904.63;2055980;28;20704;-61
2022/05/24 13:29:24;;;;;;;3.75;0.90;;;;;;;20.19;45.74;95905.19;2055847;28;20703;-62
2022/05/24 13:33:33;;;;;;;16.15;9.85;;;;;;;20.58;43.60;95905.97;2066407;28;20675;-63
2022/05/24 13:34:36;;;;;;;2.75;1.83;;;;;;;20.72;43.87;95902.81;2067118;28;20209;-61
2022/05/24 13:35:44;;;;;;;4.05;0.90;;;;;;;20.15;44.05;95873.81;2068114;28;20198;-61
2022/05/24 13:36:58;;;;;;;7.35;0.75;;;;;;;20.64;43.78;95902.72;2058373;28;20320;-61
2022/05/24 13:38:01;;;;;;;1.23;0.70;;;;;;;20.23;42.32;95900.44;2061026;28;20203;-61
2022/05/24 13:39:02;;;;;;;2.72;0.63;;;;;;;20.26;42.05;95899.31;2066126;28;20202;-65
2022/05/24 13:40:04;;;;;;;10.77;0.95;;;;;;;19.97;42.59;95890.50;2059522;28;20212;-62
2022/05/24 13:41:08;;;;;;;0.80;0.60;;;;;;;19.59;43.09;95908.13;2055828;28;20220;-62
2022/05/24 13:42:22;;;;;;;1.10;0.70;;;;;;;19.47;43.94;95901.34;2054570;28;20216;-62
2022/05/24 13:43:44;;;;;;;2.08;0.68;;;;;;;19.65;43.90;95907.56;2059258;28;20223;-62
2022/05/24 13:45:26;;;;;;;0.80;0.60;;;;;;;19.65;41.11;95910.19;2050395;28;20314;-62
2022/05/24 13:46:28;;;;;;;1.55;0.70;;;;;;;19.31;41.60;95899.25;2043221;28;20316;-62
2022/05/24 13:47:36;;;;;;;1.63;0.70;;;;;;;19.25;41.98;95892.72;2044843;29;22234;-62
2022/05/24 13:48:44;;;;;;;1.55;0.80;;;;;;;19.21;42.16;95896.59;2042931;29;20202;-62
2022/05/24 13:49:47;;;;;;;5.55;0.77;;;;;;;19.11;42.57;95898.44;2042834;28;20773;-62
2022/05/24 13:50:49;;;;;;;4.63;0.80;;;;;;;18.72;42.42;95902.69;2042312;29;20213;-62
2022/05/24 13:51:51;;;;;;;1.38;0.70;;;;;;;18.87;42.97;95904.97;2040364;28;20231;-62
2022/05/24 13:53:09;;;;;;;1.65;0.60;;;;;;;19.19;42.57;95903.88;2042075;29;20653;-62
2022/05/24 13:54:31;;;;;;;13.40;1.08;;;;;;;20.10;42.23;95905.22;2043431;29;20208;-62
2022/05/24 13:55:38;;;;;;;1.10;0.70;;;;;;;19.72;43.42;95905.19;2045630;29;20201;-62
2022/05/24 13:56:47;;;;;;;2.75;0.80;;;;;;;19.49;44.85;95902.00;2036065;29;20235;-63
2022/05/24 13:58:29;;;;;;;4.53;0.70;;;;;;;19.87;44.96;95901.13;2038444;29;20854;-61
2022/05/24 13:59:31;;;;;;;1.63;0.60;;;;;;;19.86;45.58;95909.22;2046569;29;20583;-62
2022/05/24 14:00:45;;;;;;;1.35;0.70;;;;;;;20.79;44.46;95903.91;2039990;29;20291;-62
2022/05/24 14:01:55;;;;;;;1.00;0.60;;;;;;;20.77;43.05;95905.03;2037248;29;20775;-62
2022/05/24 14:03:20;;;;;;;2.95;0.60;;;;;;;20.64;43.84;95903.53;2046654;28;20565;-61
2022/05/24 14:04:28;;;;;;;0.82;0.60;;;;;;;20.50;43.62;95902.22;2042054;29;20200;-62
2022/05/24 14:05:34;;;;;;;1.30;0.80;;;;;;;21.51;43.14;95906.53;2044663;28;20209;-62
2022/05/24 14:06:39;;;;;;;1.10;0.70;;;;;;;21.45;43.80;95904.47;2048752;28;20236;-61
2022/05/24 14:07:41;;;;;;;1.92;0.70;;;;;;;21.76;43.38;95905.88;2048719;28;20217;-61
2022/05/24 14:08:44;;;;;;;1.20;0.60;;;;;;;21.37;42.52;95907.09;2051712;28;20209;-61
2022/05/24 14:09:46;;;;;;;1.45;0.70;;;;;;;21.33;42.91;95909.22;2050476;28;20197;-61
2022/05/24 14:10:48;;;;;;;3.20;0.80;;;;;;;21.33;41.94;95897.75;2051282;28;20970;-61
2022/05/24 14:11:58;;;;;;;1.10;0.60;;;;;;;21.18;41.98;95900.94;2050277;28;20226;-61
2022/05/24 14:13:04;;;;;;;5.25;0.90;;;;;;;21.51;42.37;95900.41;2050926;28;20401;-61
2022/05/24 14:14:05;;;;;;;1.27;0.73;;;;;;;21.15;42.58;95900.41;2050377;28;20671;-61
2022/05/24 14:15:07;;;;;;;1.33;0.70;;;;;;;20.90;42.59;95902.88;2049512;28;20218;-62
2022/05/24 14:16:10;;;;;;;3.20;0.85;;;;;;;20.48;42.55;95876.84;2049445;28;20678;-62
2022/05/24 14:17:12;;;;;;;0.90;0.60;;;;;;;20.25;44.16;95903.75;2051305;28;20668;-62
2022/05/24 14:18:14;;;;;;;0.70;0.50;;;;;;;20.02;43.87;95901.50;2059520;28;20570;-61
2022/05/24 14:19:16;;;;;;;1.75;0.60;;;;;;;20.36;43.65;95894.78;2065174;28;20215;-62
2022/05/24 14:20:20;;;;;;;1.13;0.70;;;;;;;20.77;43.34;95899.72;2062399;28;20198;-62
2022/05/24 14:21:28;;;;;;;2.33;1.10;;;;;;;21.69;42.03;95905.69;2066180;28;20216;-62
2022/05/24 14:22:30;;;;;;;5.85;0.60;;;;;;;22.01;40.49;95909.53;2064227;28;20280;-62
2022/05/24 14:23:32;;;;;;;2.15;0.70;;;;;;;21.53;41.59;95909.03;2064997;28;20551;-62
2022/05/24 14:24:40;;;;;;;19.75;1.55;;;;;;;21.60;41.28;95909.25;2067083;28;20597;-61
2022/05/24 14:25:41;;;;;;;2.28;0.80;;;;;;;22.03;39.45;95912.88;2063635;28;20301;-62
2022/05/24 14:26:45;;;;;;;7.43;1.10;;;;;;;22.37;38.93;95901.41;2071071;28;20250;-61
2022/05/24 14:27:47;;;;;;;1.55;0.80;;;;;;;22.77;37.93;95910.53;2076487;28;20212;-61
2022/05/24 14:28:48;;;;;;;1.88;0.88;;;;;;;22.53;36.92;95908.63;2075332;28;20201;-61
2022/05/24 14:29:50;;;;;;;1.48;0.75;;;;;;;22.59;38.46;95912.47;2075695;28;20206;-61
2022/05/24 14:30:52;;;;;;;7.53;0.80;;;;;;;22.50;38.14;95906.31;2075705;28;20292;-62
2022/05/24 14:31:54;;;;;;;2.45;0.70;;;;;;;22.78;37.43;95904.22;2073193;28;20218;-64
2022/05/24 14:32:59;;;;;;;54.85;29.52;;;;;;;22.88;36.87;95900.56;2074013;28;20579;-63
2022/05/24 14:34:03;;;;;;;2.80;1.23;;;;;;;23.14;36.60;95908.44;2072361;28;20206;-62
2022/05/24 14:35:08;;;;;;;3.35;1.40;;;;;;;23.31;37.01;95903.97;2077744;28;20198;-63
2022/05/24 14:36:10;;;;;;;3.65;1.08;;;;;;;23.33;36.52;95906.50;2076938;28;20233;-62
2022/05/24 14:37:12;;;;;;;1.42;0.80;;;;;;;23.03;37.12;95904.25;2076782;28;20209;-61
2022/05/24 14:38:14;;;;;;;1.40;0.70;;;;;;;22.99;38.08;95903.75;2074937;28;20284;-61
2022/05/24 14:39:15;;;;;;;2.40;0.70;;;;;;;22.81;38.10;95906.53;2075205;28;20197;-60
2022/05/24 14:40:17;;;;;;;4.00;0.90;;;;;;;22.55;38.50;95909.31;2076308;28;20201;-61
2022/05/24 14:41:21;;;;;;;2.53;0.70;;;;;;;22.29;39.02;95902.19;2077667;28;20205;-60
2022/05/24 14:42:23;;;;;;;2.00;0.70;;;;;;;21.71;39.11;95905.53;2077839;28;20194;-61
2022/05/24 14:43:27;;;;;;;1.38;0.60;;;;;;;21.36;39.32;95900.94;2075250;28;20870;-61
2022/05/24 14:44:35;;;;;;;1.25;0.70;;;;;;;21.11;39.88;95904.38;2076068;28;20629;-61
2022/05/24 14:45:37;;;;;;;2.85;0.70;;;;;;;20.96;40.38;95910.22;2075110;28;20297;-62
2022/05/24 14:46:39;;;;;;;2.17;0.77;;;;;;;20.72;40.01;95908.13;2075220;28;20224;-62
2022/05/24 14:47:41;;;;;;;1.25;0.73;;;;;;;20.48;40.79;95906.88;2072106;28;20268;-62
2022/05/24 14:48:43;;;;;;;1.10;0.75;;;;;;;20.13;41.65;95907.59;2072989;28;20214;-62
2022/05/24 14:49:44;;;;;;;2.25;0.80;;;;;;;20.34;41.67;95902.88;2072391;28;20201;-62
2022/05/24 14:50:46;;;;;;;3.72;0.73;;;;;;;20.45;42.00;95906.31;2073651;28;20586;-61
2022/05/24 14:52:01;;;;;;;0.80;0.65;;;;;;;20.39;42.37;95908.59;2075419;28;20745;-62
2022/05/24 14:53:03;;;;;;;3.97;1.20;;;;;;;20.67;40.97;95905.91;2074489;28;20210;-62
2022/05/24 14:54:05;;;;;;;1.30;0.70;;;;;;;21.41;39.52;95912.91;2071379;28;20197;-62
2022/05/24 14:55:19;;;;;;;2.90;0.60;;;;;;;21.89;39.34;95914.28;2073984;28;20270;-62
2022/05/24 14:56:21;;;;;;;1.27;0.70;;;;;;;21.93;38.59;95910.31;2072845;28;20198;-62
2022/05/24 14:57:22;;;;;;;2.97;0.60;;;;;;;21.88;38.68;95912.63;2072647;28;20213;-62
2022/05/24 14:58:25;;;;;;;1.60;0.60;;;;;;;22.02;37.28;95908.53;2073241;28;20554;-62
2022/05/24 14:59:26;;;;;;;1.15;0.60;;;;;;;22.13;37.28;95912.75;2069052;28;20198;-62
2022/05/24 15:00:28;;;;;;;1.63;0.60;;;;;;;22.15;37.45;95908.09;2073054;28;20653;-62
2022/05/24 15:01:29;;;;;;;2.00;0.60;;;;;;;22.15;37.93;95913.44;2065762;28;20225;-62
2022/05/24 15:02:31;;;;;;;1.20;0.70;;;;;;;22.34;38.71;95915.81;2067067;28;20365;-62
2022/05/24 15:03:32;;;;;;;1.00;0.60;;;;;;;22.54;38.07;95915.63;2068571;28;20210;-62
2022/05/24 15:04:34;;;;;;;2.50;0.77;;;;;;;23.12;37.68;95913.06;2069248;28;20233;-62
2022/05/24 15:05:37;;;;;;;1.60;0.70;;;;;;;23.09;37.28;95914.25;2069206;28;20260;-63
2022/05/24 15:06:44;;;;;;;0.80;0.60;;;;;;;22.62;37.12;95917.47;2085674;28;20232;-63
2022/05/24 15:16:02;;;;;;;2.17;0.80;;;;;;;22.94;36.19;95914.06;2070986;28;20256;-63
2022/05/24 15:17:04;;;;;;;3.08;0.60;;;;;;;23.04;37.08;95924.56;2077173;28;20301;-62
2022/05/24 15:18:06;;;;;;;1.10;0.60;;;;;;;23.06;36.54;95914.59;2074962;28;20205;-62
2022/05/24 15:19:07;;;;;;;1.10;0.60;;;;;;;22.87;37.60;95918.38;2076553;28;20648;-63
2022/05/24 15:20:15;;;;;;;1.15;0.70;;;;;;;23.47;37.00;95921.78;2077349;28;20197;-63
2022/05/24 15:21:20;;;;;;;0.90;0.60;;;;;;;22.79;37.94;95908.53;2076361;28;20198;-63
2022/05/24 15:22:22;;;;;;;1.38;0.60;;;;;;;22.53;38.22;95915.78;2072390;28;20198;-63
2022/05/24 15:23:27;;;;;;;2.47;0.60;;;;;;;22.75;38.52;95919.66;2072440;28;20205;-63
2022/05/24 15:24:35;;;;;;;254.27;168.30;;;;;;;22.67;38.63;95923.97;2071736;28;20194;-61
2022/05/24 15:25:45;;;;;;;3.85;1.55;;;;;;;21.96;39.75;95917.16;2072352;28;20683;-65